sensor_id;sensor_type;location;lat;lon;timestamp;P1;durP1;ratioP1;P2;durP2;ratioP2
54269;SDS011;40181;51.560;13.000;2022-08-03T00:01:39;2.40;;;1.45;;
54269;SDS011;40181;51.560;13.000;2022-08-03T00:04:12;3.42;;;1.50;;
54269;SDS011;40181;51.560;13.000;2022-08-03T00:06:41;2.25;;;1.73;;
54269;SDS011;40181;51.560;13.000;2022-08-03T00:09:10;1.73;;;1.17;;
54269;SDS011;40181;51.560;13.000;2022-08-03T00:11:39;2.97;;;1.35;;
54269;SDS011;40181;51.560;13.000;2022-08-03T00:14:08;2.03;;;1.33;;
54269;SDS011;40181;51.560;13.000;2022-08-03T00:16:37;3.17;;;1.67;;
54269;SDS011;40181;51.560;13.000;2022-08-03T00:19:06;3.47;;;2.08;;
54269;SDS011;40181;51.560;13.000;2022-08-03T00:21:38;4.28;;;1.98;;
54269;SDS011;40181;51.560;13.000;2022-08-03T00:24:07;2.03;;;1.50;;
54269;SDS011;40181;51.560;13.000;2022-08-03T00:26:36;2.47;;;1.42;;
54269;SDS011;40181;51.560;13.000;2022-08-03T00:29:05;1.67;;;1.27;;
54269;SDS011;40181;51.560;13.000;2022-08-03T00:31:34;2.65;;;1.83;;
54269;SDS011;40181;51.560;13.000;2022-08-03T00:34:03;2.92;;;1.70;;
54269;SDS011;40181;51.560;13.000;2022-08-03T00:36:32;2.40;;;1.67;;
54269;SDS011;40181;51.560;13.000;2022-08-03T00:39:04;3.08;;;2.33;;
54269;SDS011;40181;51.560;13.000;2022-08-03T00:41:33;2.83;;;1.60;;
54269;SDS011;40181;51.560;13.000;2022-08-03T00:44:02;2.30;;;1.40;;
54269;SDS011;40181;51.560;13.000;2022-08-03T00:46:31;2.53;;;1.67;;
54269;SDS011;40181;51.560;13.000;2022-08-03T00:49:00;2.25;;;1.80;;
54269;SDS011;40181;51.560;13.000;2022-08-03T00:51:30;2.13;;;1.63;;
54269;SDS011;40181;51.560;13.000;2022-08-03T00:53:59;3.30;;;1.80;;
54269;SDS011;40181;51.560;13.000;2022-08-03T00:56:31;2.50;;;1.55;;
54269;SDS011;40181;51.560;13.000;2022-08-03T00:59:00;4.90;;;2.63;;
54269;SDS011;40181;51.560;13.000;2022-08-03T01:01:30;4.30;;;2.53;;
54269;SDS011;40181;51.560;13.000;2022-08-03T01:03:59;2.95;;;2.20;;
54269;SDS011;40181;51.560;13.000;2022-08-03T01:06:31;5.32;;;3.33;;
54269;SDS011;40181;51.560;13.000;2022-08-03T01:09:11;7.88;;;3.13;;
54269;SDS011;40181;51.560;13.000;2022-08-03T01:11:53;3.60;;;3.03;;
54269;SDS011;40181;51.560;13.000;2022-08-03T01:14:31;3.60;;;2.78;;
54269;SDS011;40181;51.560;13.000;2022-08-03T01:17:09;8.17;;;3.17;;
54269;SDS011;40181;51.560;13.000;2022-08-03T01:19:45;3.83;;;2.88;;
54269;SDS011;40181;51.560;13.000;2022-08-03T01:22:30;2.22;;;2.00;;
54269;SDS011;40181;51.560;13.000;2022-08-03T01:25:30;2.67;;;2.13;;
54269;SDS011;40181;51.560;13.000;2022-08-03T01:28:24;6.38;;;2.42;;
54269;SDS011;40181;51.560;13.000;2022-08-03T01:31:25;2.80;;;2.15;;
54269;SDS011;40181;51.560;13.000;2022-08-03T01:34:01;3.67;;;2.50;;
54269;SDS011;40181;51.560;13.000;2022-08-03T01:36:37;9.00;;;2.70;;
54269;SDS011;40181;51.560;13.000;2022-08-03T01:39:10;4.97;;;3.25;;
54269;SDS011;40181;51.560;13.000;2022-08-03T01:41:41;3.90;;;3.07;;
54269;SDS011;40181;51.560;13.000;2022-08-03T01:44:16;4.55;;;2.50;;
54269;SDS011;40181;51.560;13.000;2022-08-03T01:46:49;3.10;;;2.40;;
54269;SDS011;40181;51.560;13.000;2022-08-03T01:49:19;3.78;;;2.65;;
54269;SDS011;40181;51.560;13.000;2022-08-03T01:51:48;2.90;;;2.30;;
54269;SDS011;40181;51.560;13.000;2022-08-03T01:54:20;4.55;;;3.25;;
54269;SDS011;40181;51.560;13.000;2022-08-03T01:56:52;6.68;;;3.45;;
54269;SDS011;40181;51.560;13.000;2022-08-03T01:59:24;3.10;;;2.42;;
54269;SDS011;40181;51.560;13.000;2022-08-03T02:01:58;4.00;;;2.95;;
54269;SDS011;40181;51.560;13.000;2022-08-03T02:04:29;3.75;;;2.17;;
54269;SDS011;40181;51.560;13.000;2022-08-03T02:06:58;3.47;;;2.05;;
54269;SDS011;40181;51.560;13.000;2022-08-03T02:11:58;3.70;;;2.60;;
54269;SDS011;40181;51.560;13.000;2022-08-03T02:14:28;4.70;;;2.70;;
54269;SDS011;40181;51.560;13.000;2022-08-03T02:17:01;2.85;;;2.15;;
54269;SDS011;40181;51.560;13.000;2022-08-03T02:19:31;2.97;;;1.95;;
54269;SDS011;40181;51.560;13.000;2022-08-03T02:22:02;5.15;;;2.13;;
54269;SDS011;40181;51.560;13.000;2022-08-03T02:24:35;2.95;;;2.22;;
54269;SDS011;40181;51.560;13.000;2022-08-03T02:27:05;3.10;;;1.60;;
54269;SDS011;40181;51.560;13.000;2022-08-03T02:29:40;5.95;;;2.33;;
54269;SDS011;40181;51.560;13.000;2022-08-03T02:32:16;2.20;;;2.00;;
54269;SDS011;40181;51.560;13.000;2022-08-03T02:34:49;3.60;;;2.28;;
54269;SDS011;40181;51.560;13.000;2022-08-03T02:37:20;3.42;;;2.50;;
54269;SDS011;40181;51.560;13.000;2022-08-03T02:39:56;3.70;;;2.60;;
54269;SDS011;40181;51.560;13.000;2022-08-03T02:42:29;3.33;;;2.35;;
54269;SDS011;40181;51.560;13.000;2022-08-03T02:45:01;5.28;;;2.33;;
54269;SDS011;40181;51.560;13.000;2022-08-03T02:47:36;2.38;;;1.63;;
54269;SDS011;40181;51.560;13.000;2022-08-03T02:50:08;2.67;;;1.95;;
54269;SDS011;40181;51.560;13.000;2022-08-03T02:52:39;2.55;;;2.00;;
54269;SDS011;40181;51.560;13.000;2022-08-03T02:55:10;4.07;;;2.65;;
54269;SDS011;40181;51.560;13.000;2022-08-03T02:57:42;3.92;;;2.38;;
54269;SDS011;40181;51.560;13.000;2022-08-03T03:00:14;2.95;;;2.10;;
54269;SDS011;40181;51.560;13.000;2022-08-03T03:02:47;3.35;;;2.08;;
54269;SDS011;40181;51.560;13.000;2022-08-03T03:05:16;4.43;;;1.85;;
54269;SDS011;40181;51.560;13.000;2022-08-03T03:07:45;2.85;;;2.50;;
54269;SDS011;40181;51.560;13.000;2022-08-03T03:10:15;8.75;;;3.65;;
54269;SDS011;40181;51.560;13.000;2022-08-03T03:12:44;6.03;;;3.80;;
54269;SDS011;40181;51.560;13.000;2022-08-03T03:15:16;5.32;;;3.50;;
54269;SDS011;40181;51.560;13.000;2022-08-03T03:17:48;4.30;;;3.20;;
54269;SDS011;40181;51.560;13.000;2022-08-03T03:20:19;5.85;;;3.30;;
54269;SDS011;40181;51.560;13.000;2022-08-03T03:25:19;4.15;;;3.38;;
54269;SDS011;40181;51.560;13.000;2022-08-03T03:27:49;5.70;;;3.85;;
54269;SDS011;40181;51.560;13.000;2022-08-03T03:30:18;7.93;;;3.30;;
54269;SDS011;40181;51.560;13.000;2022-08-03T03:32:50;4.60;;;3.35;;
54269;SDS011;40181;51.560;13.000;2022-08-03T03:35:19;18.75;;;2.90;;
54269;SDS011;40181;51.560;13.000;2022-08-03T03:37:48;3.72;;;2.58;;
54269;SDS011;40181;51.560;13.000;2022-08-03T03:40:18;5.60;;;2.83;;
54269;SDS011;40181;51.560;13.000;2022-08-03T03:42:48;7.70;;;3.30;;
54269;SDS011;40181;51.560;13.000;2022-08-03T03:45:17;3.90;;;2.78;;
54269;SDS011;40181;51.560;13.000;2022-08-03T03:50:19;4.70;;;2.55;;
54269;SDS011;40181;51.560;13.000;2022-08-03T03:52:51;3.72;;;2.60;;
54269;SDS011;40181;51.560;13.000;2022-08-03T03:55:20;4.60;;;3.08;;
54269;SDS011;40181;51.560;13.000;2022-08-03T03:57:49;4.95;;;3.67;;
54269;SDS011;40181;51.560;13.000;2022-08-03T04:00:19;4.55;;;3.10;;
54269;SDS011;40181;51.560;13.000;2022-08-03T04:02:51;6.18;;;2.75;;
54269;SDS011;40181;51.560;13.000;2022-08-03T04:05:20;2.40;;;2.15;;
54269;SDS011;40181;51.560;13.000;2022-08-03T04:08:02;3.55;;;3.00;;
54269;SDS011;40181;51.560;13.000;2022-08-03T04:10:51;8.85;;;2.72;;
54269;SDS011;40181;51.560;13.000;2022-08-03T04:13:29;3.25;;;2.30;;
54269;SDS011;40181;51.560;13.000;2022-08-03T04:16:03;4.47;;;2.13;;
54269;SDS011;40181;51.560;13.000;2022-08-03T04:18:37;6.13;;;2.28;;
54269;SDS011;40181;51.560;13.000;2022-08-03T04:21:09;3.60;;;2.45;;
54269;SDS011;40181;51.560;13.000;2022-08-03T04:23:41;12.73;;;2.88;;
54269;SDS011;40181;51.560;13.000;2022-08-03T04:26:15;3.97;;;2.97;;
54269;SDS011;40181;51.560;13.000;2022-08-03T04:28:48;4.45;;;2.30;;
54269;SDS011;40181;51.560;13.000;2022-08-03T04:31:19;2.95;;;2.15;;
54269;SDS011;40181;51.560;13.000;2022-08-03T04:33:52;4.82;;;3.47;;
54269;SDS011;40181;51.560;13.000;2022-08-03T04:36:24;7.35;;;4.15;;
54269;SDS011;40181;51.560;13.000;2022-08-03T04:38:57;19.20;;;3.67;;
54269;SDS011;40181;51.560;13.000;2022-08-03T04:41:30;5.10;;;3.22;;
54269;SDS011;40181;51.560;13.000;2022-08-03T04:44:02;4.93;;;2.65;;
54269;SDS011;40181;51.560;13.000;2022-08-03T04:49:06;11.73;;;3.92;;
54269;SDS011;40181;51.560;13.000;2022-08-03T04:51:36;6.50;;;3.33;;
54269;SDS011;40181;51.560;13.000;2022-08-03T04:54:10;5.13;;;3.42;;
54269;SDS011;40181;51.560;13.000;2022-08-03T04:56:40;4.65;;;3.60;;
54269;SDS011;40181;51.560;13.000;2022-08-03T04:59:10;5.45;;;3.20;;
54269;SDS011;40181;51.560;13.000;2022-08-03T05:01:41;3.92;;;3.13;;
54269;SDS011;40181;51.560;13.000;2022-08-03T05:04:13;12.05;;;4.45;;
54269;SDS011;40181;51.560;13.000;2022-08-03T05:06:43;6.50;;;3.33;;
54269;SDS011;40181;51.560;13.000;2022-08-03T05:09:12;18.80;;;4.35;;
54269;SDS011;40181;51.560;13.000;2022-08-03T05:11:41;4.28;;;3.50;;
54269;SDS011;40181;51.560;13.000;2022-08-03T05:14:10;10.00;;;3.20;;
54269;SDS011;40181;51.560;13.000;2022-08-03T05:16:39;5.72;;;3.03;;
54269;SDS011;40181;51.560;13.000;2022-08-03T05:19:08;3.95;;;2.95;;
54269;SDS011;40181;51.560;13.000;2022-08-03T05:21:40;3.70;;;2.38;;
54269;SDS011;40181;51.560;13.000;2022-08-03T05:24:09;6.55;;;4.60;;
54269;SDS011;40181;51.560;13.000;2022-08-03T05:26:38;7.43;;;4.50;;
54269;SDS011;40181;51.560;13.000;2022-08-03T05:29:07;5.43;;;3.65;;
54269;SDS011;40181;51.560;13.000;2022-08-03T05:31:36;3.53;;;2.92;;
54269;SDS011;40181;51.560;13.000;2022-08-03T05:34:05;5.00;;;2.95;;
54269;SDS011;40181;51.560;13.000;2022-08-03T05:36:34;6.18;;;3.83;;
54269;SDS011;40181;51.560;13.000;2022-08-03T05:39:06;8.23;;;2.88;;
54269;SDS011;40181;51.560;13.000;2022-08-03T05:41:35;7.00;;;3.45;;
54269;SDS011;40181;51.560;13.000;2022-08-03T05:44:04;8.98;;;3.55;;
54269;SDS011;40181;51.560;13.000;2022-08-03T05:46:33;4.18;;;3.38;;
54269;SDS011;40181;51.560;13.000;2022-08-03T05:49:03;4.35;;;2.85;;
54269;SDS011;40181;51.560;13.000;2022-08-03T05:51:32;7.95;;;4.10;;
54269;SDS011;40181;51.560;13.000;2022-08-03T05:54:01;4.28;;;3.15;;
54269;SDS011;40181;51.560;13.000;2022-08-03T05:56:33;5.40;;;3.90;;
54269;SDS011;40181;51.560;13.000;2022-08-03T05:59:02;4.40;;;3.65;;
54269;SDS011;40181;51.560;13.000;2022-08-03T06:01:31;6.35;;;2.63;;
54269;SDS011;40181;51.560;13.000;2022-08-03T06:04:01;4.47;;;2.78;;
54269;SDS011;40181;51.560;13.000;2022-08-03T06:06:30;5.10;;;3.28;;
54269;SDS011;40181;51.560;13.000;2022-08-03T06:08:59;6.30;;;3.03;;
54269;SDS011;40181;51.560;13.000;2022-08-03T06:11:28;8.50;;;2.72;;
54269;SDS011;40181;51.560;13.000;2022-08-03T06:13:59;4.57;;;2.88;;
54269;SDS011;40181;51.560;13.000;2022-08-03T06:16:28;5.13;;;3.10;;
54269;SDS011;40181;51.560;13.000;2022-08-03T06:18:57;4.03;;;2.47;;
54269;SDS011;40181;51.560;13.000;2022-08-03T06:21:27;3.00;;;2.17;;
54269;SDS011;40181;51.560;13.000;2022-08-03T06:23:56;7.15;;;2.47;;
54269;SDS011;40181;51.560;13.000;2022-08-03T06:26:25;4.57;;;2.83;;
54269;SDS011;40181;51.560;13.000;2022-08-03T06:28:55;4.35;;;2.25;;
54269;SDS011;40181;51.560;13.000;2022-08-03T06:31:26;4.35;;;2.25;;
54269;SDS011;40181;51.560;13.000;2022-08-03T06:33:56;4.20;;;2.58;;
54269;SDS011;40181;51.560;13.000;2022-08-03T06:36:25;6.88;;;2.95;;
54269;SDS011;40181;51.560;13.000;2022-08-03T06:38:55;4.85;;;1.88;;
54269;SDS011;40181;51.560;13.000;2022-08-03T06:41:25;4.32;;;1.95;;
54269;SDS011;40181;51.560;13.000;2022-08-03T06:43:54;3.13;;;2.20;;
54269;SDS011;40181;51.560;13.000;2022-08-03T06:46:23;14.23;;;2.42;;
54269;SDS011;40181;51.560;13.000;2022-08-03T06:48:55;2.95;;;2.28;;
54269;SDS011;40181;51.560;13.000;2022-08-03T06:51:24;2.45;;;1.70;;
54269;SDS011;40181;51.560;13.000;2022-08-03T06:53:53;2.25;;;1.67;;
54269;SDS011;40181;51.560;13.000;2022-08-03T06:56:22;3.85;;;2.22;;
54269;SDS011;40181;51.560;13.000;2022-08-03T06:58:51;4.95;;;2.08;;
54269;SDS011;40181;51.560;13.000;2022-08-03T07:01:20;2.20;;;1.67;;
54269;SDS011;40181;51.560;13.000;2022-08-03T07:03:52;8.05;;;2.45;;
54269;SDS011;40181;51.560;13.000;2022-08-03T07:06:21;4.00;;;2.08;;
54269;SDS011;40181;51.560;13.000;2022-08-03T07:08:50;5.53;;;1.73;;
54269;SDS011;40181;51.560;13.000;2022-08-03T07:11:20;4.68;;;2.33;;
54269;SDS011;40181;51.560;13.000;2022-08-03T07:13:49;9.75;;;2.30;;
54269;SDS011;40181;51.560;13.000;2022-08-03T07:16:18;6.10;;;2.45;;
54269;SDS011;40181;51.560;13.000;2022-08-03T07:18:47;5.90;;;1.40;;
54269;SDS011;40181;51.560;13.000;2022-08-03T07:21:19;4.93;;;2.75;;
54269;SDS011;40181;51.560;13.000;2022-08-03T07:23:48;3.72;;;1.88;;
54269;SDS011;40181;51.560;13.000;2022-08-03T07:26:18;3.33;;;1.47;;
54269;SDS011;40181;51.560;13.000;2022-08-03T07:28:47;3.30;;;1.90;;
54269;SDS011;40181;51.560;13.000;2022-08-03T07:31:16;4.22;;;2.13;;
54269;SDS011;40181;51.560;13.000;2022-08-03T07:33:45;3.20;;;2.08;;
54269;SDS011;40181;51.560;13.000;2022-08-03T07:36:14;3.05;;;1.63;;
54269;SDS011;40181;51.560;13.000;2022-08-03T07:38:46;3.00;;;1.67;;
54269;SDS011;40181;51.560;13.000;2022-08-03T07:41:15;4.70;;;1.63;;
54269;SDS011;40181;51.560;13.000;2022-08-03T07:43:44;2.88;;;1.65;;
54269;SDS011;40181;51.560;13.000;2022-08-03T07:46:13;3.70;;;1.55;;
54269;SDS011;40181;51.560;13.000;2022-08-03T07:48:42;5.45;;;2.00;;
54269;SDS011;40181;51.560;13.000;2022-08-03T07:51:11;1.98;;;1.05;;
54269;SDS011;40181;51.560;13.000;2022-08-03T07:53:40;3.03;;;1.42;;
54269;SDS011;40181;51.560;13.000;2022-08-03T07:56:12;4.63;;;1.60;;
54269;SDS011;40181;51.560;13.000;2022-08-03T07:58:41;6.90;;;2.13;;
54269;SDS011;40181;51.560;13.000;2022-08-03T08:01:10;4.93;;;1.75;;
54269;SDS011;40181;51.560;13.000;2022-08-03T08:03:39;4.55;;;1.10;;
54269;SDS011;40181;51.560;13.000;2022-08-03T08:06:08;2.15;;;1.30;;
54269;SDS011;40181;51.560;13.000;2022-08-03T08:08:37;1.60;;;1.13;;
54269;SDS011;40181;51.560;13.000;2022-08-03T08:11:06;1.77;;;1.40;;
54269;SDS011;40181;51.560;13.000;2022-08-03T08:13:38;2.60;;;1.10;;
54269;SDS011;40181;51.560;13.000;2022-08-03T08:16:07;2.42;;;1.33;;
54269;SDS011;40181;51.560;13.000;2022-08-03T08:18:36;5.28;;;1.27;;
54269;SDS011;40181;51.560;13.000;2022-08-03T08:21:05;1.42;;;0.98;;
54269;SDS011;40181;51.560;13.000;2022-08-03T08:23:34;5.00;;;1.45;;
54269;SDS011;40181;51.560;13.000;2022-08-03T08:26:03;1.80;;;1.10;;
54269;SDS011;40181;51.560;13.000;2022-08-03T08:28:32;3.58;;;0.82;;
54269;SDS011;40181;51.560;13.000;2022-08-03T08:31:03;1.55;;;0.98;;
54269;SDS011;40181;51.560;13.000;2022-08-03T08:33:33;4.13;;;1.23;;
54269;SDS011;40181;51.560;13.000;2022-08-03T08:36:02;3.40;;;1.48;;
54269;SDS011;40181;51.560;13.000;2022-08-03T08:38:33;31.48;;;1.40;;
54269;SDS011;40181;51.560;13.000;2022-08-03T08:41:02;2.70;;;1.42;;
54269;SDS011;40181;51.560;13.000;2022-08-03T08:43:32;2.92;;;0.90;;
54269;SDS011;40181;51.560;13.000;2022-08-03T08:46:04;3.15;;;1.42;;
54269;SDS011;40181;51.560;13.000;2022-08-03T08:48:34;2.92;;;1.23;;
54269;SDS011;40181;51.560;13.000;2022-08-03T08:51:08;2.03;;;1.23;;
54269;SDS011;40181;51.560;13.000;2022-08-03T08:53:40;1.45;;;1.25;;
54269;SDS011;40181;51.560;13.000;2022-08-03T08:56:15;2.13;;;1.48;;
54269;SDS011;40181;51.560;13.000;2022-08-03T08:58:46;4.10;;;1.47;;
54269;SDS011;40181;51.560;13.000;2022-08-03T09:01:30;3.60;;;1.77;;
54269;SDS011;40181;51.560;13.000;2022-08-03T09:03:59;4.45;;;1.95;;
54269;SDS011;40181;51.560;13.000;2022-08-03T09:06:28;3.03;;;1.40;;
54269;SDS011;40181;51.560;13.000;2022-08-03T09:08:57;2.70;;;0.82;;
54269;SDS011;40181;51.560;13.000;2022-08-03T09:11:26;1.73;;;1.02;;
54269;SDS011;40181;51.560;13.000;2022-08-03T09:13:55;2.42;;;1.15;;
54269;SDS011;40181;51.560;13.000;2022-08-03T09:16:25;4.38;;;1.40;;
54269;SDS011;40181;51.560;13.000;2022-08-03T09:19:00;5.88;;;1.25;;
54269;SDS011;40181;51.560;13.000;2022-08-03T09:21:40;1.73;;;0.93;;
54269;SDS011;40181;51.560;13.000;2022-08-03T09:24:09;3.00;;;1.60;;
54269;SDS011;40181;51.560;13.000;2022-08-03T09:26:38;2.63;;;1.33;;
54269;SDS011;40181;51.560;13.000;2022-08-03T09:29:08;1.58;;;1.00;;
54269;SDS011;40181;51.560;13.000;2022-08-03T09:31:40;4.45;;;1.90;;
54269;SDS011;40181;51.560;13.000;2022-08-03T09:34:13;1.48;;;1.08;;
54269;SDS011;40181;51.560;13.000;2022-08-03T09:36:45;3.15;;;1.48;;
54269;SDS011;40181;51.560;13.000;2022-08-03T09:39:18;2.13;;;1.48;;
54269;SDS011;40181;51.560;13.000;2022-08-03T09:42:02;2.53;;;1.50;;
54269;SDS011;40181;51.560;13.000;2022-08-03T09:44:33;5.88;;;1.13;;
54269;SDS011;40181;51.560;13.000;2022-08-03T09:47:05;2.60;;;1.60;;
54269;SDS011;40181;51.560;13.000;2022-08-03T09:49:37;5.18;;;1.42;;
54269;SDS011;40181;51.560;13.000;2022-08-03T09:52:13;1.90;;;1.02;;
54269;SDS011;40181;51.560;13.000;2022-08-03T09:54:49;2.45;;;1.23;;
54269;SDS011;40181;51.560;13.000;2022-08-03T09:57:20;1.15;;;0.80;;
54269;SDS011;40181;51.560;13.000;2022-08-03T09:59:51;3.00;;;1.40;;
54269;SDS011;40181;51.560;13.000;2022-08-03T10:02:23;1.55;;;1.08;;
54269;SDS011;40181;51.560;13.000;2022-08-03T10:04:56;1.33;;;1.15;;
54269;SDS011;40181;51.560;13.000;2022-08-03T10:07:25;1.27;;;0.98;;
54269;SDS011;40181;51.560;13.000;2022-08-03T10:09:55;2.78;;;1.67;;
54269;SDS011;40181;51.560;13.000;2022-08-03T10:12:26;1.98;;;1.35;;
54269;SDS011;40181;51.560;13.000;2022-08-03T10:14:56;1.25;;;1.10;;
54269;SDS011;40181;51.560;13.000;2022-08-03T10:17:25;2.15;;;0.90;;
54269;SDS011;40181;51.560;13.000;2022-08-03T10:19:56;2.10;;;1.23;;
54269;SDS011;40181;51.560;13.000;2022-08-03T10:22:27;4.60;;;1.65;;
54269;SDS011;40181;51.560;13.000;2022-08-03T10:25:02;2.38;;;1.35;;
54269;SDS011;40181;51.560;13.000;2022-08-03T10:27:35;1.40;;;1.20;;
54269;SDS011;40181;51.560;13.000;2022-08-03T10:30:08;4.25;;;1.75;;
54269;SDS011;40181;51.560;13.000;2022-08-03T10:32:39;2.13;;;1.13;;
54269;SDS011;40181;51.560;13.000;2022-08-03T10:35:14;2.38;;;1.35;;
54269;SDS011;40181;51.560;13.000;2022-08-03T10:37:47;2.15;;;1.38;;
54269;SDS011;40181;51.560;13.000;2022-08-03T10:40:27;1.85;;;1.20;;
54269;SDS011;40181;51.560;13.000;2022-08-03T10:43:05;1.75;;;0.95;;
54269;SDS011;40181;51.560;13.000;2022-08-03T10:45:39;1.25;;;0.90;;
54269;SDS011;40181;51.560;13.000;2022-08-03T10:48:09;4.35;;;1.08;;
54269;SDS011;40181;51.560;13.000;2022-08-03T10:50:42;4.03;;;1.70;;
54269;SDS011;40181;51.560;13.000;2022-08-03T10:53:11;5.57;;;1.40;;
54269;SDS011;40181;51.560;13.000;2022-08-03T10:55:41;6.05;;;1.55;;
54269;SDS011;40181;51.560;13.000;2022-08-03T11:01:16;1.25;;;1.05;;
54269;SDS011;40181;51.560;13.000;2022-08-03T11:06:47;4.97;;;1.13;;
54269;SDS011;40181;51.560;13.000;2022-08-03T11:09:50;2.20;;;1.65;;
54269;SDS011;40181;51.560;13.000;2022-08-03T11:12:21;2.40;;;1.30;;
54269;SDS011;40181;51.560;13.000;2022-08-03T11:14:51;7.20;;;1.92;;
54269;SDS011;40181;51.560;13.000;2022-08-03T11:17:22;1.95;;;1.20;;
54269;SDS011;40181;51.560;13.000;2022-08-03T11:19:52;1.70;;;1.13;;
54269;SDS011;40181;51.560;13.000;2022-08-03T11:22:24;3.10;;;1.70;;
54269;SDS011;40181;51.560;13.000;2022-08-03T11:25:14;2.67;;;1.35;;
54269;SDS011;40181;51.560;13.000;2022-08-03T11:27:43;1.50;;;1.00;;
54269;SDS011;40181;51.560;13.000;2022-08-03T11:30:22;1.20;;;0.97;;
54269;SDS011;40181;51.560;13.000;2022-08-03T11:32:56;5.40;;;1.20;;
54269;SDS011;40181;51.560;13.000;2022-08-03T11:35:27;1.40;;;1.30;;
54269;SDS011;40181;51.560;13.000;2022-08-03T11:38:06;1.50;;;1.17;;
54269;SDS011;40181;51.560;13.000;2022-08-03T11:40:41;1.92;;;0.90;;
54269;SDS011;40181;51.560;13.000;2022-08-03T11:46:12;1.42;;;1.05;;
54269;SDS011;40181;51.560;13.000;2022-08-03T11:48:46;1.52;;;1.02;;
54269;SDS011;40181;51.560;13.000;2022-08-03T11:51:18;0.93;;;0.68;;
54269;SDS011;40181;51.560;13.000;2022-08-03T11:53:58;1.23;;;0.77;;
54269;SDS011;40181;51.560;13.000;2022-08-03T11:56:42;4.35;;;0.98;;
54269;SDS011;40181;51.560;13.000;2022-08-03T11:59:13;2.90;;;1.60;;
54269;SDS011;40181;51.560;13.000;2022-08-03T12:01:43;1.25;;;1.00;;
54269;SDS011;40181;51.560;13.000;2022-08-03T12:04:12;2.50;;;1.25;;
54269;SDS011;40181;51.560;13.000;2022-08-03T12:06:41;1.87;;;1.07;;
54269;SDS011;40181;51.560;13.000;2022-08-03T12:09:28;1.98;;;1.30;;
54269;SDS011;40181;51.560;13.000;2022-08-03T12:12:00;1.70;;;1.00;;
54269;SDS011;40181;51.560;13.000;2022-08-03T12:14:29;3.50;;;1.70;;
54269;SDS011;40181;51.560;13.000;2022-08-03T12:16:58;1.77;;;0.98;;
54269;SDS011;40181;51.560;13.000;2022-08-03T12:19:27;1.07;;;0.97;;
54269;SDS011;40181;51.560;13.000;2022-08-03T12:22:09;3.90;;;1.33;;
54269;SDS011;40181;51.560;13.000;2022-08-03T12:24:42;2.75;;;1.80;;
54269;SDS011;40181;51.560;13.000;2022-08-03T12:27:13;3.22;;;1.73;;
54269;SDS011;40181;51.560;13.000;2022-08-03T12:29:53;2.30;;;1.40;;
54269;SDS011;40181;51.560;13.000;2022-08-03T12:32:25;2.22;;;1.10;;
54269;SDS011;40181;51.560;13.000;2022-08-03T12:34:56;0.80;;;0.60;;
54269;SDS011;40181;51.560;13.000;2022-08-03T12:37:28;1.83;;;1.20;;
54269;SDS011;40181;51.560;13.000;2022-08-03T12:40:00;2.05;;;1.33;;
54269;SDS011;40181;51.560;13.000;2022-08-03T12:42:31;3.47;;;1.50;;
54269;SDS011;40181;51.560;13.000;2022-08-03T12:45:17;1.77;;;0.93;;
54269;SDS011;40181;51.560;13.000;2022-08-03T12:47:48;1.88;;;0.93;;
54269;SDS011;40181;51.560;13.000;2022-08-03T12:50:23;18.42;;;1.30;;
54269;SDS011;40181;51.560;13.000;2022-08-03T12:52:57;4.38;;;1.42;;
54269;SDS011;40181;51.560;13.000;2022-08-03T12:55:31;3.60;;;0.88;;
54269;SDS011;40181;51.560;13.000;2022-08-03T12:58:00;1.70;;;0.85;;
54269;SDS011;40181;51.560;13.000;2022-08-03T13:00:31;1.55;;;1.17;;
54269;SDS011;40181;51.560;13.000;2022-08-03T13:05:32;1.38;;;0.88;;
54269;SDS011;40181;51.560;13.000;2022-08-03T13:08:16;1.60;;;1.00;;
54269;SDS011;40181;51.560;13.000;2022-08-03T13:10:49;1.17;;;1.00;;
54269;SDS011;40181;51.560;13.000;2022-08-03T13:16:06;3.70;;;1.13;;
54269;SDS011;40181;51.560;13.000;2022-08-03T13:18:35;1.47;;;1.07;;
54269;SDS011;40181;51.560;13.000;2022-08-03T13:21:04;1.00;;;0.80;;
54269;SDS011;40181;51.560;13.000;2022-08-03T13:23:33;2.03;;;0.80;;
54269;SDS011;40181;51.560;13.000;2022-08-03T13:26:04;2.80;;;1.07;;
54269;SDS011;40181;51.560;13.000;2022-08-03T13:28:34;1.52;;;1.02;;
54269;SDS011;40181;51.560;13.000;2022-08-03T13:31:03;1.67;;;1.10;;
54269;SDS011;40181;51.560;13.000;2022-08-03T13:33:33;1.88;;;0.93;;
54269;SDS011;40181;51.560;13.000;2022-08-03T13:36:03;1.33;;;0.90;;
54269;SDS011;40181;51.560;13.000;2022-08-03T13:38:32;1.73;;;1.08;;
54269;SDS011;40181;51.560;13.000;2022-08-03T13:41:01;1.00;;;0.90;;
54269;SDS011;40181;51.560;13.000;2022-08-03T13:43:33;1.30;;;0.70;;
54269;SDS011;40181;51.560;13.000;2022-08-03T13:46:02;0.60;;;0.60;;
54269;SDS011;40181;51.560;13.000;2022-08-03T13:48:31;1.33;;;0.97;;
54269;SDS011;40181;51.560;13.000;2022-08-03T13:51:00;2.23;;;1.67;;
54269;SDS011;40181;51.560;13.000;2022-08-03T13:53:29;1.98;;;0.70;;
54269;SDS011;40181;51.560;13.000;2022-08-03T13:55:58;1.60;;;1.00;;
54269;SDS011;40181;51.560;13.000;2022-08-03T13:58:30;1.30;;;1.10;;
54269;SDS011;40181;51.560;13.000;2022-08-03T14:00:59;4.70;;;0.95;;
54269;SDS011;40181;51.560;13.000;2022-08-03T14:03:28;1.63;;;0.90;;
54269;SDS011;40181;51.560;13.000;2022-08-03T14:05:57;1.53;;;0.83;;
54269;SDS011;40181;51.560;13.000;2022-08-03T14:08:26;2.33;;;1.37;;
54269;SDS011;40181;51.560;13.000;2022-08-03T14:10:55;2.97;;;1.05;;
54269;SDS011;40181;51.560;13.000;2022-08-03T14:15:57;2.35;;;0.77;;
54269;SDS011;40181;51.560;13.000;2022-08-03T14:18:26;1.10;;;0.90;;
54269;SDS011;40181;51.560;13.000;2022-08-03T14:20:55;2.30;;;1.05;;
54269;SDS011;40181;51.560;13.000;2022-08-03T14:23:25;1.33;;;0.90;;
54269;SDS011;40181;51.560;13.000;2022-08-03T14:25:54;8.40;;;1.50;;
54269;SDS011;40181;51.560;13.000;2022-08-03T14:28:23;0.98;;;0.90;;
54269;SDS011;40181;51.560;13.000;2022-08-03T14:30:53;3.22;;;0.88;;
54269;SDS011;40181;51.560;13.000;2022-08-03T14:33:27;1.45;;;0.88;;
54269;SDS011;40181;51.560;13.000;2022-08-03T14:35:56;1.77;;;1.17;;
54269;SDS011;40181;51.560;13.000;2022-08-03T14:38:25;2.05;;;1.05;;
54269;SDS011;40181;51.560;13.000;2022-08-03T14:40:54;1.90;;;0.98;;
54269;SDS011;40181;51.560;13.000;2022-08-03T14:43:23;1.90;;;1.10;;
54269;SDS011;40181;51.560;13.000;2022-08-03T14:45:53;2.13;;;1.08;;
54269;SDS011;40181;51.560;13.000;2022-08-03T14:48:24;1.83;;;1.30;;
54269;SDS011;40181;51.560;13.000;2022-08-03T14:50:54;1.92;;;0.80;;
54269;SDS011;40181;51.560;13.000;2022-08-03T14:53:23;1.25;;;0.98;;
54269;SDS011;40181;51.560;13.000;2022-08-03T14:55:52;3.72;;;1.05;;
54269;SDS011;40181;51.560;13.000;2022-08-03T14:58:22;1.40;;;1.27;;
54269;SDS011;40181;51.560;13.000;2022-08-03T15:00:53;6.57;;;1.48;;
54269;SDS011;40181;51.560;13.000;2022-08-03T15:03:25;4.10;;;1.63;;
54269;SDS011;40181;51.560;13.000;2022-08-03T15:05:55;2.30;;;1.15;;
54269;SDS011;40181;51.560;13.000;2022-08-03T15:08:24;1.00;;;0.73;;
54269;SDS011;40181;51.560;13.000;2022-08-03T15:10:54;2.97;;;1.45;;
54269;SDS011;40181;51.560;13.000;2022-08-03T15:13:23;1.45;;;0.95;;
54269;SDS011;40181;51.560;13.000;2022-08-03T15:15:52;3.83;;;1.38;;
54269;SDS011;40181;51.560;13.000;2022-08-03T15:18:22;2.33;;;0.93;;
54269;SDS011;40181;51.560;13.000;2022-08-03T15:20:53;0.80;;;0.73;;
54269;SDS011;40181;51.560;13.000;2022-08-03T15:23:22;1.30;;;1.15;;
54269;SDS011;40181;51.560;13.000;2022-08-03T15:25:52;2.03;;;1.45;;